createdAt,value
2023-10-06T00:00:33.251Z,102307.06
2023-10-06T00:03:00.367Z,102299.78
2023-10-06T00:05:30.226Z,102307.88
2023-10-06T00:07:58.800Z,102306.09
2023-10-06T00:10:28.552Z,102307.75
2023-10-06T00:13:00.139Z,102310.31
2023-10-06T00:15:41.043Z,102302.97
2023-10-06T00:18:09.190Z,102279.50
2023-10-06T00:20:40.457Z,102304.69
2023-10-06T00:23:13.774Z,102301.94
2023-10-06T00:25:43.722Z,102303.69
2023-10-06T00:28:21.028Z,102295.84
2023-10-06T00:30:49.292Z,102291.00
2023-10-06T00:33:18.979Z,102299.28
2023-10-06T00:35:49.329Z,102296.50
2023-10-06T00:38:19.947Z,102291.09
2023-10-06T00:40:55.846Z,102293.53
2023-10-06T00:43:40.740Z,102300.88
2023-10-06T00:46:08.583Z,102277.47
2023-10-06T00:48:45.947Z,102276.47
2023-10-06T00:51:21.148Z,102292.63
2023-10-06T00:53:54.151Z,102267.25
2023-10-06T00:56:25.004Z,102275.97
2023-10-06T00:58:53.358Z,102258.97
2023-10-06T01:01:21.031Z,102280.56
2023-10-06T01:04:12.516Z,102291.41
2023-10-06T01:06:42.347Z,102284.50
2023-10-06T01:09:18.070Z,102285.34
2023-10-06T01:11:44.929Z,102282.06
2023-10-06T01:14:12.211Z,102272.25
2023-10-06T01:16:39.945Z,102271.25
2023-10-06T01:19:18.232Z,102274.22
2023-10-06T01:21:48.068Z,102276.16
2023-10-06T01:24:25.680Z,102269.94
2023-10-06T01:26:55.479Z,102269.13
2023-10-06T01:29:30.609Z,102259.53
2023-10-06T01:31:58.879Z,102249.72
2023-10-06T01:34:28.510Z,102251.84
2023-10-06T01:36:57.450Z,102269.69
2023-10-06T01:39:27.372Z,102261.81
2023-10-06T01:41:54.131Z,102245.94
2023-10-06T01:44:20.820Z,102254.16
2023-10-06T01:46:54.663Z,102251.63
2023-10-06T01:49:25.256Z,102248.16
2023-10-06T01:52:06.737Z,102259.81
2023-10-06T01:54:37.769Z,102247.44
2023-10-06T01:57:05.581Z,102221.28
2023-10-06T01:59:32.390Z,102239.41
2023-10-06T02:02:02.969Z,102242.09
2023-10-06T02:04:39.833Z,102224.16
2023-10-06T02:07:10.561Z,102240.31
2023-10-06T02:09:38.713Z,102234.88
2023-10-06T02:12:07.313Z,102245.53
2023-10-06T02:14:35.049Z,102243.81
2023-10-06T02:17:07.144Z,102248.97
2023-10-06T02:19:35.750Z,102243.63
2023-10-06T02:22:07.350Z,102232.91
2023-10-06T02:24:34.648Z,102249.16
2023-10-06T02:27:02.911Z,102248.25
2023-10-06T02:29:30.974Z,102230.38
2023-10-06T02:32:03.153Z,102255.38
2023-10-06T02:34:36.589Z,102254.66
2023-10-06T02:37:05.693Z,102236.00
2023-10-06T02:39:35.328Z,102247.72
2023-10-06T02:42:10.617Z,102249.50
2023-10-06T02:44:42.448Z,102242.38
2023-10-06T02:47:11.596Z,102246.72
2023-10-06T02:49:41.673Z,102246.72
2023-10-06T02:52:22.159Z,102249.44
2023-10-06T02:55:06.693Z,102252.94
2023-10-06T02:57:38.181Z,102253.53
2023-10-06T03:00:22.425Z,102247.25
2023-10-06T03:02:57.445Z,102236.50
2023-10-06T03:05:48.704Z,102240.94
2023-10-06T03:08:21.835Z,102236.50
2023-10-06T03:10:50.189Z,102217.41
2023-10-06T03:13:33.931Z,102239.03
2023-10-06T03:16:11.289Z,102208.50
2023-10-06T03:18:40.723Z,102226.47
2023-10-06T03:21:12.638Z,102225.38
2023-10-06T03:23:48.830Z,102234.22
2023-10-06T03:26:26.984Z,102228.28
2023-10-06T03:28:54.733Z,102228.91
2023-10-06T03:31:25.056Z,102223.53
2023-10-06T03:33:56.852Z,102220.81
2023-10-06T03:36:46.867Z,102234.97
2023-10-06T03:39:23.418Z,102218.09
2023-10-06T03:41:56.285Z,102202.75
2023-10-06T03:44:28.010Z,102212.78
2023-10-06T03:46:56.685Z,102203.66
2023-10-06T03:49:27.190Z,102202.81
2023-10-06T03:51:57.191Z,102208.03
2023-10-06T03:54:24.885Z,102201.56
2023-10-06T03:56:51.611Z,102199.66
2023-10-06T03:59:22.496Z,102190.63
2023-10-06T04:01:49.546Z,102193.25
2023-10-06T04:04:16.992Z,102188.72
2023-10-06T04:06:45.395Z,102190.72
2023-10-06T04:09:20.077Z,102193.53
2023-10-06T04:11:48.658Z,102188.03
2023-10-06T04:14:15.590Z,102190.78
2023-10-06T04:16:47.221Z,102197.75
2023-10-06T04:19:18.092Z,102195.19
2023-10-06T04:21:44.793Z,102211.81
2023-10-06T04:24:11.739Z,102215.25
2023-10-06T04:26:40.884Z,102216.91
2023-10-06T04:29:10.529Z,102200.66
2023-10-06T04:31:38.734Z,102203.16
2023-10-06T04:34:06.642Z,102187.91
2023-10-06T04:36:34.743Z,102195.84
2023-10-06T04:39:02.509Z,102189.50
2023-10-06T04:41:31.248Z,102190.47
2023-10-06T04:44:03.316Z,102191.41
2023-10-06T04:46:31.157Z,102199.84
2023-10-06T04:48:58.867Z,102200.56
2023-10-06T04:51:28.427Z,102184.59
2023-10-06T04:53:56.249Z,102178.56
2023-10-06T04:56:23.636Z,102181.38
2023-10-06T04:58:51.540Z,102165.13
2023-10-06T05:01:18.358Z,102171.63
2023-10-06T05:03:46.085Z,102165.50
2023-10-06T05:06:18.019Z,102170.63
2023-10-06T05:08:51.048Z,102159.75
2023-10-06T05:11:18.983Z,102186.75
2023-10-06T05:13:50.810Z,102184.78
2023-10-06T05:16:20.824Z,102184.88
2023-10-06T05:18:48.922Z,102192.00
2023-10-06T05:21:16.691Z,102192.78
2023-10-06T05:23:46.314Z,102182.88
2023-10-06T05:26:14.955Z,102191.91
2023-10-06T05:28:43.591Z,102187.81
2023-10-06T05:31:10.337Z,102173.44
2023-10-06T05:33:37.265Z,102180.00
2023-10-06T05:36:16.479Z,102188.16
2023-10-06T05:38:46.989Z,102182.09
2023-10-06T05:41:16.439Z,102190.31
2023-10-06T05:43:44.711Z,102175.16
2023-10-06T05:46:12.829Z,102177.13
2023-10-06T05:48:41.495Z,102173.63
2023-10-06T05:51:11.680Z,102181.00
2023-10-06T05:53:44.866Z,102174.13
2023-10-06T05:56:13.600Z,102190.19
2023-10-06T05:58:42.417Z,102183.94
2023-10-06T06:01:20.187Z,102178.69
2023-10-06T06:03:48.935Z,102182.16
2023-10-06T06:06:18.016Z,102169.81
2023-10-06T06:08:48.500Z,102175.75
2023-10-06T06:11:17.459Z,102160.84
2023-10-06T06:13:52.790Z,102181.78
2023-10-06T06:16:23.838Z,102166.78
2023-10-06T06:18:51.859Z,102170.66
2023-10-06T06:21:18.583Z,102172.69
2023-10-06T06:23:47.952Z,102170.28
2023-10-06T06:26:18.289Z,102182.28
2023-10-06T06:28:46.429Z,102195.06
2023-10-06T06:31:19.764Z,102181.25
2023-10-06T06:33:57.513Z,102194.16
2023-10-06T06:36:25.324Z,102182.09
2023-10-06T06:38:52.804Z,102192.22
2023-10-06T06:41:20.767Z,102178.09
2023-10-06T06:43:48.561Z,102191.84
2023-10-06T06:46:18.349Z,102195.06
2023-10-06T06:48:45.869Z,102187.56
2023-10-06T06:51:13.946Z,102180.06
2023-10-06T06:53:42.599Z,102181.06
2023-10-06T06:56:11.995Z,102187.34
2023-10-06T06:58:39.216Z,102180.06
2023-10-06T07:01:15.671Z,102188.03
2023-10-06T07:03:42.793Z,102179.16
2023-10-06T07:06:17.522Z,102187.56
2023-10-06T07:08:50.839Z,102184.31
2023-10-06T07:11:18.608Z,102184.69
2023-10-06T07:13:47.250Z,102183.16
2023-10-06T07:16:15.841Z,102178.16
2023-10-06T07:18:43.027Z,102160.69
2023-10-06T07:21:11.192Z,102184.28
2023-10-06T07:23:39.024Z,102177.78
2023-10-06T07:26:14.547Z,102192.00
2023-10-06T07:28:42.456Z,102196.66
2023-10-06T07:31:14.381Z,102188.94
2023-10-06T07:33:42.471Z,102198.72
2023-10-06T07:36:18.680Z,102204.84
2023-10-06T07:38:45.959Z,102187.38
2023-10-06T07:41:20.262Z,102201.00
2023-10-06T07:43:49.602Z,102188.59
2023-10-06T07:46:17.989Z,102195.41
2023-10-06T07:48:47.176Z,102213.31
2023-10-06T07:51:14.638Z,102206.13
2023-10-06T07:53:42.557Z,102214.16
2023-10-06T07:56:12.813Z,102224.16
2023-10-06T07:58:44.740Z,102198.22
2023-10-06T08:01:15.346Z,102207.03
2023-10-06T08:03:42.841Z,102199.75
2023-10-06T08:06:11.946Z,102217.75
2023-10-06T08:08:39.578Z,102192.06
2023-10-06T08:11:07.370Z,102215.16
2023-10-06T08:13:35.017Z,102195.91
2023-10-06T08:16:02.271Z,102201.38
2023-10-06T08:18:31.438Z,102230.22
2023-10-06T08:21:00.333Z,102221.22
2023-10-06T08:23:27.461Z,102208.06
2023-10-06T08:26:00.940Z,102212.09
2023-10-06T08:28:28.407Z,102205.06
2023-10-06T08:30:55.249Z,102208.19
2023-10-06T08:33:27.029Z,102208.75
2023-10-06T08:36:02.189Z,102203.28
2023-10-06T08:38:29.883Z,102193.34
2023-10-06T08:41:01.725Z,102195.91
2023-10-06T08:43:28.709Z,102198.97
2023-10-06T08:45:57.147Z,102199.97
2023-10-06T08:48:26.574Z,102183.81
2023-10-06T08:50:56.313Z,102193.50
2023-10-06T08:53:24.823Z,102166.03
2023-10-06T08:55:51.692Z,102192.31
2023-10-06T08:58:18.988Z,102185.22
2023-10-06T09:00:46.012Z,102201.28
2023-10-06T09:03:15.914Z,102196.69
2023-10-06T09:05:43.750Z,102182.91
2023-10-06T09:08:16.185Z,102214.88
2023-10-06T09:10:50.449Z,102188.78
2023-10-06T09:13:19.505Z,102147.94
2023-10-06T09:15:58.496Z,102211.63
2023-10-06T09:18:31.045Z,102200.31
2023-10-06T09:21:10.978Z,102203.22
2023-10-06T09:23:41.002Z,102197.88
2023-10-06T09:26:10.070Z,102152.22
2023-10-06T09:28:49.769Z,102170.03
2023-10-06T09:31:16.420Z,102177.59
2023-10-06T09:33:45.451Z,102171.81
2023-10-06T09:36:32.064Z,102148.44
2023-10-06T09:39:07.249Z,102174.00
2023-10-06T09:41:35.618Z,102170.91
2023-10-06T09:44:08.659Z,102090.75
2023-10-06T09:46:36.517Z,102146.84
2023-10-06T09:49:08.634Z,102150.88
2023-10-06T09:51:39.253Z,102170.31
2023-10-06T09:54:10.857Z,102156.63
2023-10-06T09:56:43.124Z,102139.19
2023-10-06T09:59:14.791Z,102151.56
2023-10-06T10:01:47.765Z,102157.66
2023-10-06T10:04:15.815Z,102145.16
2023-10-06T10:06:46.543Z,102145.22
2023-10-06T10:09:22.208Z,102128.84
2023-10-06T10:12:10.198Z,102158.63
2023-10-06T10:15:17.041Z,102141.84
2023-10-06T10:18:31.838Z,102138.41
2023-10-06T10:21:01.204Z,102140.81
2023-10-06T10:23:32.209Z,102130.41
2023-10-06T10:26:17.338Z,102137.16
2023-10-06T10:28:46.840Z,102137.94
2023-10-06T10:31:18.675Z,102135.41
2023-10-06T10:33:48.107Z,102143.25
2023-10-06T10:36:19.180Z,102132.44
2023-10-06T10:38:56.942Z,102122.91
2023-10-06T10:41:27.392Z,102126.94
2023-10-06T10:44:06.741Z,102134.84
2023-10-06T10:46:54.376Z,102139.97
2023-10-06T10:49:24.008Z,102127.88
2023-10-06T10:51:55.139Z,102124.22
2023-10-06T10:54:23.991Z,102111.00
2023-10-06T10:56:54.283Z,102123.16
2023-10-06T10:59:22.910Z,102116.97
2023-10-06T11:01:54.394Z,102111.31
2023-10-06T11:04:32.217Z,102121.75
2023-10-06T11:07:11.095Z,102114.16
2023-10-06T11:09:48.133Z,102095.44
2023-10-06T11:12:24.177Z,102118.34
2023-10-06T11:15:04.254Z,102121.00
2023-10-06T11:17:33.137Z,102115.28
2023-10-06T11:20:14.489Z,102136.84
2023-10-06T11:22:52.198Z,102132.66
2023-10-06T11:25:19.761Z,102132.72
2023-10-06T11:27:56.801Z,102112.13
2023-10-06T11:30:24.601Z,102113.06
2023-10-06T11:32:58.111Z,102122.00
2023-10-06T11:35:25.761Z,102109.69
2023-10-06T11:37:54.015Z,102102.84
2023-10-06T11:40:25.203Z,102102.63
2023-10-06T11:42:54.377Z,102115.31
2023-10-06T11:45:25.458Z,102106.59
2023-10-06T11:47:54.382Z,102088.47
2023-10-06T11:50:22.980Z,102098.09
2023-10-06T11:52:50.876Z,102084.84
2023-10-06T11:55:27.911Z,102089.97
2023-10-06T11:57:55.364Z,102069.16
2023-10-06T12:00:41.657Z,102081.69
2023-10-06T12:03:12.608Z,102082.66
2023-10-06T12:05:42.830Z,102083.88
2023-10-06T12:08:15.167Z,102074.63
2023-10-06T12:10:52.349Z,102076.50
2023-10-06T12:13:19.922Z,102068.44
2023-10-06T12:15:47.665Z,102068.47
2023-10-06T12:18:16.375Z,102058.34
2023-10-06T12:20:43.214Z,102079.88
2023-10-06T12:23:09.961Z,102072.38
2023-10-06T12:25:37.700Z,102067.59
2023-10-06T12:28:04.988Z,102050.53
2023-10-06T12:30:31.638Z,102069.50
2023-10-06T12:33:01.903Z,102064.16
2023-10-06T12:35:31.377Z,102069.19
2023-10-06T12:37:58.254Z,102056.66
2023-10-06T12:40:25.244Z,102041.78
2023-10-06T12:42:51.959Z,102051.44
2023-10-06T12:45:18.974Z,102042.28
2023-10-06T12:47:47.527Z,102044.78
2023-10-06T12:50:20.287Z,102051.16
2023-10-06T12:52:53.231Z,102040.13
2023-10-06T12:55:25.973Z,102022.25
2023-10-06T12:57:55.035Z,102043.09
2023-10-06T13:00:22.100Z,102054.00
2023-10-06T13:02:50.218Z,102047.63
2023-10-06T13:05:18.494Z,102033.69
2023-10-06T13:07:47.665Z,102030.44
2023-10-06T13:10:16.923Z,102046.84
2023-10-06T13:12:44.796Z,102030.03
2023-10-06T13:15:15.503Z,102039.25
2023-10-06T13:17:42.783Z,102031.00
2023-10-06T13:20:13.938Z,102037.91
2023-10-06T13:22:42.630Z,102017.56
2023-10-06T13:25:11.847Z,102014.13
2023-10-06T13:27:41.665Z,102006.16
2023-10-06T13:30:14.889Z,101979.47
2023-10-06T13:32:49.186Z,102017.38
2023-10-06T13:35:20.671Z,102022.56
2023-10-06T13:37:49.669Z,102015.50
2023-10-06T13:40:17.885Z,102016.34
2023-10-06T13:42:48.962Z,102010.56
2023-10-06T13:45:24.673Z,101999.28
2023-10-06T13:47:55.967Z,101993.56
2023-10-06T13:50:25.163Z,102013.81
2023-10-06T13:52:53.291Z,101972.00
2023-10-06T13:55:21.721Z,102020.41
2023-10-06T13:57:52.962Z,101990.56
2023-10-06T14:00:30.974Z,102006.34
2023-10-06T14:03:00.627Z,101992.56
2023-10-06T14:05:32.240Z,101997.72
2023-10-06T14:08:06.420Z,101993.38
2023-10-06T14:10:36.987Z,101989.81
2023-10-06T14:13:18.439Z,101993.97
2023-10-06T14:15:46.909Z,101997.81
2023-10-06T14:18:15.482Z,102006.66
2023-10-06T14:20:46.408Z,101999.69
2023-10-06T14:23:14.455Z,101988.91
2023-10-06T14:25:42.322Z,101985.69
2023-10-06T14:28:12.950Z,101985.22
2023-10-06T14:30:43.999Z,102002.88
2023-10-06T14:33:12.193Z,101997.31
2023-10-06T14:36:00.956Z,102000.94
2023-10-06T14:38:44.765Z,101967.44
2023-10-06T14:41:32.395Z,101991.34
2023-10-06T14:44:19.042Z,101987.09
2023-10-06T14:47:06.508Z,101985.75
2023-10-06T14:49:34.178Z,102001.06
2023-10-06T14:52:02.558Z,101985.53
2023-10-06T14:54:34.370Z,101931.00
2023-10-06T14:57:04.571Z,101962.00
2023-10-06T14:59:32.921Z,101919.53
2023-10-06T15:02:11.872Z,101929.78
2023-10-06T15:04:40.421Z,101981.41
2023-10-06T15:07:10.088Z,101964.03
2023-10-06T15:09:39.285Z,101967.13
2023-10-06T15:12:06.959Z,101979.19
2023-10-06T15:14:37.138Z,101973.53
2023-10-06T15:17:05.811Z,101956.22
2023-10-06T15:19:36.712Z,101989.00
2023-10-06T15:22:03.838Z,101966.66
2023-10-06T15:24:30.799Z,101980.97
2023-10-06T15:26:58.048Z,101943.41
2023-10-06T15:29:26.292Z,101974.72
2023-10-06T15:31:53.263Z,101945.09
2023-10-06T15:34:20.548Z,101964.81
2023-10-06T15:36:48.167Z,101961.19
2023-10-06T15:39:19.044Z,101972.09
2023-10-06T15:41:47.125Z,101973.13
2023-10-06T15:44:16.053Z,101962.56
2023-10-06T15:46:43.916Z,101970.84
2023-10-06T15:49:16.369Z,101959.34
2023-10-06T15:51:46.823Z,101962.06
2023-10-06T15:54:13.709Z,101964.06
2023-10-06T15:56:40.950Z,101966.03
2023-10-06T15:59:14.264Z,101948.28
2023-10-06T16:01:46.295Z,101964.56
2023-10-06T16:04:15.144Z,101954.00
2023-10-06T16:06:45.198Z,101971.09
2023-10-06T16:09:17.003Z,101969.44
2023-10-06T16:11:44.452Z,101959.66
2023-10-06T16:14:11.569Z,101984.88
2023-10-06T16:16:39.408Z,101967.94
2023-10-06T16:19:06.950Z,101963.56
2023-10-06T16:21:34.372Z,101971.69
2023-10-06T16:24:02.723Z,101976.22
2023-10-06T16:26:31.395Z,101976.31
2023-10-06T16:28:59.511Z,101968.31
2023-10-06T16:31:27.341Z,101966.56
2023-10-06T16:33:55.205Z,101963.00
2023-10-06T16:36:23.730Z,101935.31
2023-10-06T16:38:52.034Z,101953.28
2023-10-06T16:41:24.718Z,101964.06
2023-10-06T16:43:56.853Z,101968.59
2023-10-06T16:46:24.204Z,101974.03
2023-10-06T16:48:51.092Z,101960.59
2023-10-06T16:51:21.545Z,101961.50
2023-10-06T16:53:49.749Z,101955.28
2023-10-06T16:56:17.396Z,101957.13
2023-10-06T16:58:44.137Z,101950.84
2023-10-06T17:01:10.953Z,101958.94
2023-10-06T17:03:38.120Z,101983.16
2023-10-06T17:06:07.479Z,101976.88
2023-10-06T17:08:34.612Z,101968.81
2023-10-06T17:11:12.709Z,101958.03
2023-10-06T17:13:39.330Z,101969.69
2023-10-06T17:16:10.578Z,101955.31
2023-10-06T17:18:37.600Z,101967.88
2023-10-06T17:21:08.015Z,101976.84
2023-10-06T17:23:35.155Z,101972.34
2023-10-06T17:26:03.310Z,101960.69
2023-10-06T17:28:31.361Z,101965.16
2023-10-06T17:31:02.759Z,101962.47
2023-10-06T17:33:30.143Z,101970.50
2023-10-06T17:35:58.004Z,101957.94
2023-10-06T17:38:24.863Z,101967.78
2023-10-06T17:40:51.487Z,101970.47
2023-10-06T17:43:18.413Z,101969.53
2023-10-06T17:45:45.675Z,101971.28
2023-10-06T17:48:15.156Z,101962.25
2023-10-06T17:50:50.125Z,101976.63
2023-10-06T17:53:18.467Z,101973.88
2023-10-06T17:55:53.455Z,101981.00
2023-10-06T17:58:21.238Z,101972.91
2023-10-06T18:00:48.637Z,101978.28
2023-10-06T18:03:18.300Z,101976.47
2023-10-06T18:05:46.285Z,101953.97
2023-10-06T18:08:13.028Z,101986.22
2023-10-06T18:10:41.513Z,101974.53
2023-10-06T18:13:08.779Z,101974.50
2023-10-06T18:15:35.533Z,101977.13
2023-10-06T18:18:02.292Z,101962.78
2023-10-06T18:20:29.681Z,101972.63
2023-10-06T18:22:57.255Z,101969.03
2023-10-06T18:25:24.625Z,101977.97
2023-10-06T18:27:51.375Z,101966.31
2023-10-06T18:30:19.259Z,101973.47
2023-10-06T18:32:46.672Z,101969.81
2023-10-06T18:35:13.462Z,101980.53
2023-10-06T18:37:40.656Z,101967.06
2023-10-06T18:40:07.907Z,101964.25
2023-10-06T18:42:34.604Z,101970.50
2023-10-06T18:45:01.245Z,101976.69
2023-10-06T18:47:31.480Z,101979.28
2023-10-06T18:49:58.826Z,101964.03
2023-10-06T18:52:25.706Z,101974.75
2023-10-06T18:54:52.425Z,101970.25
2023-10-06T18:57:20.267Z,101971.09
2023-10-06T18:59:46.918Z,101967.50
2023-10-06T19:02:14.196Z,101974.59
2023-10-06T19:04:41.064Z,101964.75
2023-10-06T19:07:08.420Z,101953.94
2023-10-06T19:09:35.092Z,101961.16
2023-10-06T19:12:05.036Z,101956.75
2023-10-06T19:14:32.149Z,101954.81
2023-10-06T19:16:59.089Z,101953.75
2023-10-06T19:19:28.625Z,101961.75
2023-10-06T19:21:55.492Z,101975.09
2023-10-06T19:24:22.178Z,101971.44
2023-10-06T19:26:51.993Z,101974.91
2023-10-06T19:29:20.678Z,101961.47
2023-10-06T19:31:48.747Z,101959.66
2023-10-06T19:34:16.811Z,101966.66
2023-10-06T19:36:45.449Z,101982.75
2023-10-06T19:39:15.600Z,101981.81
2023-10-06T19:41:44.440Z,101981.91
2023-10-06T19:44:11.365Z,101978.41
2023-10-06T19:46:40.217Z,101932.63
2023-10-06T19:49:07.022Z,101975.75
2023-10-06T19:51:33.761Z,101980.22
2023-10-06T19:54:00.544Z,101974.03
2023-10-06T19:56:27.432Z,101957.88
2023-10-06T19:58:55.276Z,101967.75
2023-10-06T20:01:25.201Z,101955.22
2023-10-06T20:03:52.481Z,101966.94
2023-10-06T20:06:23.241Z,101977.69
2023-10-06T20:08:50.040Z,101975.91
2023-10-06T20:11:16.745Z,101969.66
2023-10-06T20:13:43.366Z,101967.88
2023-10-06T20:16:11.656Z,101976.78
2023-10-06T20:18:40.937Z,101977.75
2023-10-06T20:21:07.981Z,101965.19
2023-10-06T20:23:36.628Z,101975.78
2023-10-06T20:26:03.247Z,101965.06
2023-10-06T20:28:29.930Z,101975.81
2023-10-06T20:30:57.847Z,101973.19
2023-10-06T20:33:24.719Z,101982.06
2023-10-06T20:35:51.324Z,101969.53
2023-10-06T20:38:18.960Z,101971.28
2023-10-06T20:40:47.590Z,101978.34
2023-10-06T20:43:14.304Z,101968.38
2023-10-06T20:45:41.010Z,101978.22
2023-10-06T20:48:10.527Z,101978.19
2023-10-06T20:50:42.778Z,101986.13
2023-10-06T20:53:10.426Z,101989.63
2023-10-06T20:55:37.424Z,101989.56
2023-10-06T20:58:05.229Z,101989.47
2023-10-06T21:00:31.885Z,101988.50
2023-10-06T21:02:58.922Z,101985.75
2023-10-06T21:05:26.246Z,101988.31
2023-10-06T21:07:54.232Z,101984.63
2023-10-06T21:10:21.608Z,101996.97
2023-10-06T21:12:48.462Z,102005.00
2023-10-06T21:15:15.884Z,101994.16
2023-10-06T21:17:43.746Z,101968.03
2023-10-06T21:20:13.598Z,101976.97
2023-10-06T21:22:41.316Z,101985.84
2023-10-06T21:25:10.313Z,101988.63
2023-10-06T21:27:40.965Z,101979.56
2023-10-06T21:30:16.693Z,101984.91
2023-10-06T21:32:46.141Z,101983.06
2023-10-06T21:35:16.516Z,101989.41
2023-10-06T21:37:43.601Z,101984.13
2023-10-06T21:40:12.758Z,101990.44
2023-10-06T21:42:39.591Z,101962.53
2023-10-06T21:45:07.233Z,101988.66
2023-10-06T21:47:34.345Z,101995.81
2023-10-06T21:50:01.230Z,101994.91
2023-10-06T21:52:30.159Z,101997.59
2023-10-06T21:54:57.451Z,101985.97
2023-10-06T21:57:26.448Z,101966.19
2023-10-06T21:59:53.979Z,101968.03
2023-10-06T22:02:20.778Z,101965.34
2023-10-06T22:04:47.554Z,101965.31
2023-10-06T22:07:15.904Z,101950.97
2023-10-06T22:09:42.913Z,101957.25
2023-10-06T22:12:10.523Z,101969.00
2023-10-06T22:14:37.414Z,101943.94
2023-10-06T22:17:06.208Z,101927.00
2023-10-06T22:19:34.480Z,101975.53
2023-10-06T22:22:02.079Z,101946.81
2023-10-06T22:24:29.493Z,101968.34
2023-10-06T22:26:59.558Z,101968.34
2023-10-06T22:29:27.964Z,101973.69
2023-10-06T22:31:55.163Z,101964.69
2023-10-06T22:34:23.525Z,101971.03
2023-10-06T22:36:52.743Z,101958.53
2023-10-06T22:39:21.393Z,101967.53
2023-10-06T22:41:48.196Z,101962.16
2023-10-06T22:44:16.015Z,101969.44
2023-10-06T22:46:42.815Z,101964.00
2023-10-06T22:49:09.564Z,101962.09
2023-10-06T22:51:38.008Z,101966.78
2023-10-06T22:54:06.166Z,101932.72
2023-10-06T22:56:33.040Z,101962.44
2023-10-06T22:59:00.729Z,101949.03
2023-10-06T23:01:27.535Z,101925.66
2023-10-06T23:03:54.338Z,101963.38
2023-10-06T23:06:21.036Z,101964.28
2023-10-06T23:08:47.777Z,101966.13
2023-10-06T23:11:16.214Z,101958.91
2023-10-06T23:13:43.143Z,101965.16
2023-10-06T23:16:10.964Z,101976.81
2023-10-06T23:18:40.651Z,101958.94
2023-10-06T23:21:08.409Z,101958.06
2023-10-06T23:23:38.484Z,101947.31
2023-10-06T23:26:09.853Z,101953.66
2023-10-06T23:28:37.848Z,101931.16
2023-10-06T23:31:05.017Z,101949.16
2023-10-06T23:33:31.914Z,101934.78
2023-10-06T23:35:59.565Z,101942.00
2023-10-06T23:38:27.299Z,101915.00
2023-10-06T23:40:54.206Z,101943.63
2023-10-06T23:43:21.076Z,101942.75
2023-10-06T23:45:48.350Z,101948.91
2023-10-06T23:48:16.846Z,101937.22
2023-10-06T23:50:53.660Z,101947.00
2023-10-06T23:53:28.434Z,101941.63
2023-10-06T23:56:02.327Z,101909.22
2023-10-06T23:58:34.105Z,101937.00
